sensor_id;sensor_type;location;lat;lon;timestamp;pressure;altitude;pressure_sealevel;temperature;humidity
20228;BME280;12195;55.790;37.572;2023-01-10T00:01:04;101860.48;;;-15.30;66.02
20228;BME280;12195;55.790;37.572;2023-01-10T00:03:34;101844.36;;;-15.32;66.06
20228;BME280;12195;55.790;37.572;2023-01-10T00:06:06;101859.84;;;-15.27;66.11
20228;BME280;12195;55.790;37.572;2023-01-10T00:08:39;101855.89;;;-15.04;66.31
20228;BME280;12195;55.790;37.572;2023-01-10T00:11:11;101847.61;;;-15.13;65.80
20228;BME280;12195;55.790;37.572;2023-01-10T00:13:54;101855.25;;;-15.01;65.60
20228;BME280;12195;55.790;37.572;2023-01-10T00:16:27;101858.45;;;-15.14;65.65
20228;BME280;12195;55.790;37.572;2023-01-10T00:18:59;101853.13;;;-15.07;65.70
20228;BME280;12195;55.790;37.572;2023-01-10T00:21:32;101849.36;;;-15.12;65.46
20228;BME280;12195;55.790;37.572;2023-01-10T00:24:04;101838.66;;;-15.09;65.41
20228;BME280;12195;55.790;37.572;2023-01-10T00:26:38;101851.12;;;-15.11;65.19
20228;BME280;12195;55.790;37.572;2023-01-10T00:29:13;101843.69;;;-15.09;65.28
20228;BME280;12195;55.790;37.572;2023-01-10T00:31:45;101843.34;;;-15.14;65.20
20228;BME280;12195;55.790;37.572;2023-01-10T00:34:17;101841.80;;;-15.02;64.88
20228;BME280;12195;55.790;37.572;2023-01-10T00:36:49;101839.55;;;-15.09;64.84
20228;BME280;12195;55.790;37.572;2023-01-10T00:39:23;101834.89;;;-15.14;65.01
20228;BME280;12195;55.790;37.572;2023-01-10T00:41:57;101837.28;;;-15.06;65.02
20228;BME280;12195;55.790;37.572;2023-01-10T00:44:47;101843.05;;;-15.07;65.11
20228;BME280;12195;55.790;37.572;2023-01-10T00:47:19;101848.59;;;-15.01;65.14
20228;BME280;12195;55.790;37.572;2023-01-10T00:49:51;101827.21;;;-15.06;65.27
20228;BME280;12195;55.790;37.572;2023-01-10T00:52:23;101828.84;;;-15.06;65.40
20228;BME280;12195;55.790;37.572;2023-01-10T00:54:55;101834.25;;;-15.02;65.49
20228;BME280;12195;55.790;37.572;2023-01-10T00:57:27;101826.40;;;-14.95;65.48
20228;BME280;12195;55.790;37.572;2023-01-10T01:00:00;101825.49;;;-14.85;65.65
20228;BME280;12195;55.790;37.572;2023-01-10T01:02:32;101820.58;;;-14.84;65.60
20228;BME280;12195;55.790;37.572;2023-01-10T01:05:05;101817.54;;;-14.80;65.39
20228;BME280;12195;55.790;37.572;2023-01-10T01:07:37;101819.08;;;-14.82;65.47
20228;BME280;12195;55.790;37.572;2023-01-10T01:10:10;101818.83;;;-14.85;65.50
20228;BME280;12195;55.790;37.572;2023-01-10T01:12:59;101819.94;;;-14.81;65.29
20228;BME280;12195;55.790;37.572;2023-01-10T01:15:32;101800.16;;;-14.77;65.36
20228;BME280;12195;55.790;37.572;2023-01-10T01:18:08;101801.66;;;-14.79;65.19
20228;BME280;12195;55.790;37.572;2023-01-10T01:20:41;101794.81;;;-14.70;64.63
20228;BME280;12195;55.790;37.572;2023-01-10T01:23:15;101791.55;;;-14.69;64.93
20228;BME280;12195;55.790;37.572;2023-01-10T01:25:51;101786.64;;;-14.67;64.88
20228;BME280;12195;55.790;37.572;2023-01-10T01:28:24;101786.84;;;-14.64;64.26
20228;BME280;12195;55.790;37.572;2023-01-10T01:30:56;101778.06;;;-14.69;64.48
20228;BME280;12195;55.790;37.572;2023-01-10T01:33:28;101780.64;;;-14.79;64.35
20228;BME280;12195;55.790;37.572;2023-01-10T01:36:00;101787.16;;;-14.71;64.41
20228;BME280;12195;55.790;37.572;2023-01-10T01:38:33;101775.08;;;-14.75;64.26
20228;BME280;12195;55.790;37.572;2023-01-10T01:41:05;101778.00;;;-14.81;64.43
20228;BME280;12195;55.790;37.572;2023-01-10T01:44:09;101788.94;;;-14.80;64.53
20228;BME280;12195;55.790;37.572;2023-01-10T01:46:36;101800.16;;;-14.77;64.63
20228;BME280;12195;55.790;37.572;2023-01-10T01:49:14;101800.98;;;-14.66;64.63
20228;BME280;12195;55.790;37.572;2023-01-10T01:51:48;101790.53;;;-14.71;64.64
20228;BME280;12195;55.790;37.572;2023-01-10T01:54:21;101783.88;;;-14.70;64.86
20228;BME280;12195;55.790;37.572;2023-01-10T01:56:57;101790.02;;;-14.67;65.06
20228;BME280;12195;55.790;37.572;2023-01-10T01:59:37;101789.73;;;-14.60;65.12
20228;BME280;12195;55.790;37.572;2023-01-10T02:02:18;101803.69;;;-14.53;65.18
20228;BME280;12195;55.790;37.572;2023-01-10T02:05:10;101799.02;;;-14.49;65.27
20228;BME280;12195;55.790;37.572;2023-01-10T02:07:45;101786.87;;;-14.43;65.43
20228;BME280;12195;55.790;37.572;2023-01-10T02:13:06;101782.03;;;-14.18;65.46
20228;BME280;12195;55.790;37.572;2023-01-10T02:15:40;101786.95;;;-14.20;65.17
20228;BME280;12195;55.790;37.572;2023-01-10T02:18:13;101785.41;;;-14.18;65.14
20228;BME280;12195;55.790;37.572;2023-01-10T02:20:49;101779.83;;;-14.14;65.22
20228;BME280;12195;55.790;37.572;2023-01-10T02:23:33;101788.45;;;-14.00;64.95
20228;BME280;12195;55.790;37.572;2023-01-10T02:29:30;101796.42;;;-14.06;64.16
20228;BME280;12195;55.790;37.572;2023-01-10T02:32:14;101785.12;;;-14.11;64.28
20228;BME280;12195;55.790;37.572;2023-01-10T02:38:21;101787.64;;;-14.11;63.58
20228;BME280;12195;55.790;37.572;2023-01-10T02:44:13;101781.67;;;-13.90;63.37
20228;BME280;12195;55.790;37.572;2023-01-10T02:46:48;101787.67;;;-13.99;62.78
20228;BME280;12195;55.790;37.572;2023-01-10T02:49:21;101786.34;;;-14.06;62.51
20228;BME280;12195;55.790;37.572;2023-01-10T02:51:53;101788.62;;;-14.09;62.74
20228;BME280;12195;55.790;37.572;2023-01-10T02:54:27;101792.98;;;-14.18;62.93
20228;BME280;12195;55.790;37.572;2023-01-10T03:00:01;101802.41;;;-14.15;63.33
20228;BME280;12195;55.790;37.572;2023-01-10T03:02:44;101805.05;;;-14.14;63.47
20228;BME280;12195;55.790;37.572;2023-01-10T03:08:21;101801.02;;;-14.12;63.65
20228;BME280;12195;55.790;37.572;2023-01-10T03:13:46;101811.03;;;-14.02;63.71
20228;BME280;12195;55.790;37.572;2023-01-10T03:16:21;101805.00;;;-14.04;63.81
20228;BME280;12195;55.790;37.572;2023-01-10T03:19:09;101794.38;;;-14.00;63.90
20228;BME280;12195;55.790;37.572;2023-01-10T03:21:35;101799.63;;;-13.97;63.96
20228;BME280;12195;55.790;37.572;2023-01-10T03:24:17;101812.73;;;-13.91;64.05
20228;BME280;12195;55.790;37.572;2023-01-10T03:26:59;101802.66;;;-13.79;64.03
20228;BME280;12195;55.790;37.572;2023-01-10T03:32:11;101814.06;;;-13.84;63.92
20228;BME280;12195;55.790;37.572;2023-01-10T03:34:45;101804.83;;;-13.84;63.79
20228;BME280;12195;55.790;37.572;2023-01-10T03:37:29;101808.12;;;-13.85;63.80
20228;BME280;12195;55.790;37.572;2023-01-10T03:40:07;101813.52;;;-13.80;63.64
20228;BME280;12195;55.790;37.572;2023-01-10T03:45:50;101797.61;;;-13.79;63.63
20228;BME280;12195;55.790;37.572;2023-01-10T03:48:22;101798.70;;;-13.76;63.40
20228;BME280;12195;55.790;37.572;2023-01-10T03:50:58;101798.64;;;-13.66;63.52
20228;BME280;12195;55.790;37.572;2023-01-10T03:53:36;101798.94;;;-13.73;63.25
20228;BME280;12195;55.790;37.572;2023-01-10T03:56:13;101796.89;;;-13.67;63.57
20228;BME280;12195;55.790;37.572;2023-01-10T03:58:46;101789.63;;;-13.62;63.58
20228;BME280;12195;55.790;37.572;2023-01-10T04:01:18;101785.78;;;-13.69;63.61
20228;BME280;12195;55.790;37.572;2023-01-10T04:03:51;101783.38;;;-13.67;63.80
20228;BME280;12195;55.790;37.572;2023-01-10T04:06:23;101789.75;;;-13.61;63.95
20228;BME280;12195;55.790;37.572;2023-01-10T04:08:55;101786.88;;;-13.65;64.04
20228;BME280;12195;55.790;37.572;2023-01-10T04:11:27;101795.47;;;-13.52;64.26
20228;BME280;12195;55.790;37.572;2023-01-10T04:14:00;101797.98;;;-13.52;64.30
20228;BME280;12195;55.790;37.572;2023-01-10T04:16:32;101800.52;;;-13.52;64.36
20228;BME280;12195;55.790;37.572;2023-01-10T04:19:05;101808.44;;;-13.47;64.37
20228;BME280;12195;55.790;37.572;2023-01-10T04:21:37;101812.83;;;-13.45;64.39
20228;BME280;12195;55.790;37.572;2023-01-10T04:24:10;101814.58;;;-13.44;64.43
20228;BME280;12195;55.790;37.572;2023-01-10T04:26:42;101818.44;;;-13.37;64.42
20228;BME280;12195;55.790;37.572;2023-01-10T04:29:14;101821.08;;;-13.36;64.25
20228;BME280;12195;55.790;37.572;2023-01-10T04:31:47;101826.24;;;-13.34;64.18
20228;BME280;12195;55.790;37.572;2023-01-10T04:34:19;101816.80;;;-13.37;64.28
20228;BME280;12195;55.790;37.572;2023-01-10T04:36:52;101823.06;;;-13.32;64.01
20228;BME280;12195;55.790;37.572;2023-01-10T04:39:25;101818.23;;;-13.40;64.17
20228;BME280;12195;55.790;37.572;2023-01-10T04:41:58;101829.31;;;-13.38;64.17
20228;BME280;12195;55.790;37.572;2023-01-10T04:44:31;101832.38;;;-13.31;64.22
20228;BME280;12195;55.790;37.572;2023-01-10T04:47:03;101834.59;;;-13.24;64.25
20228;BME280;12195;55.790;37.572;2023-01-10T04:49:35;101836.34;;;-13.23;64.04
20228;BME280;12195;55.790;37.572;2023-01-10T04:52:07;101841.86;;;-13.17;64.18
20228;BME280;12195;55.790;37.572;2023-01-10T04:54:40;101827.56;;;-13.16;64.05
20228;BME280;12195;55.790;37.572;2023-01-10T04:57:12;101837.67;;;-13.16;64.09
20228;BME280;12195;55.790;37.572;2023-01-10T04:59:47;101847.15;;;-13.14;64.21
20228;BME280;12195;55.790;37.572;2023-01-10T05:02:19;101840.66;;;-13.10;64.19
20228;BME280;12195;55.790;37.572;2023-01-10T05:04:51;101840.77;;;-13.09;64.18
20228;BME280;12195;55.790;37.572;2023-01-10T05:07:24;101832.42;;;-13.08;64.40
20228;BME280;12195;55.790;37.572;2023-01-10T05:09:57;101837.90;;;-13.02;64.34
20228;BME280;12195;55.790;37.572;2023-01-10T05:12:30;101842.21;;;-13.01;64.41
20228;BME280;12195;55.790;37.572;2023-01-10T05:15:02;101838.67;;;-12.91;64.05
20228;BME280;12195;55.790;37.572;2023-01-10T05:17:35;101848.00;;;-12.90;64.18
20228;BME280;12195;55.790;37.572;2023-01-10T05:20:08;101847.88;;;-12.92;64.22
20228;BME280;12195;55.790;37.572;2023-01-10T05:22:40;101848.30;;;-12.86;64.35
20228;BME280;12195;55.790;37.572;2023-01-10T05:25:13;101851.06;;;-12.83;64.16
20228;BME280;12195;55.790;37.572;2023-01-10T05:27:45;101845.58;;;-12.77;64.00
20228;BME280;12195;55.790;37.572;2023-01-10T05:30:17;101850.40;;;-12.80;63.64
20228;BME280;12195;55.790;37.572;2023-01-10T05:32:50;101854.47;;;-12.71;63.84
20228;BME280;12195;55.790;37.572;2023-01-10T05:35:23;101871.52;;;-12.80;63.87
20228;BME280;12195;55.790;37.572;2023-01-10T05:37:55;101869.75;;;-12.69;63.70
20228;BME280;12195;55.790;37.572;2023-01-10T05:40:28;101877.34;;;-12.81;63.74
20228;BME280;12195;55.790;37.572;2023-01-10T05:43:00;101888.66;;;-12.76;63.79
20228;BME280;12195;55.790;37.572;2023-01-10T05:45:33;101893.48;;;-12.79;63.90
20228;BME280;12195;55.790;37.572;2023-01-10T05:48:06;101895.47;;;-12.75;63.77
20228;BME280;12195;55.790;37.572;2023-01-10T05:50:38;101902.30;;;-12.62;63.71
20228;BME280;12195;55.790;37.572;2023-01-10T05:53:11;101891.63;;;-12.58;63.56
20228;BME280;12195;55.790;37.572;2023-01-10T05:55:53;101900.63;;;-12.62;63.52
20228;BME280;12195;55.790;37.572;2023-01-10T05:58:26;101900.20;;;-12.68;63.61
20228;BME280;12195;55.790;37.572;2023-01-10T06:00:59;101901.06;;;-12.67;63.71
20228;BME280;12195;55.790;37.572;2023-01-10T06:03:33;101914.59;;;-12.67;63.87
20228;BME280;12195;55.790;37.572;2023-01-10T06:06:07;101921.52;;;-12.64;64.05
20228;BME280;12195;55.790;37.572;2023-01-10T06:08:39;101924.03;;;-12.53;64.11
20228;BME280;12195;55.790;37.572;2023-01-10T06:11:11;101916.45;;;-12.53;64.04
20228;BME280;12195;55.790;37.572;2023-01-10T06:13:44;101912.28;;;-12.52;64.11
20228;BME280;12195;55.790;37.572;2023-01-10T06:16:17;101914.92;;;-12.51;64.17
20228;BME280;12195;55.790;37.572;2023-01-10T06:18:49;101911.06;;;-12.46;64.13
20228;BME280;12195;55.790;37.572;2023-01-10T06:21:22;101913.38;;;-12.37;64.29
20228;BME280;12195;55.790;37.572;2023-01-10T06:23:54;101923.39;;;-12.38;64.30
20228;BME280;12195;55.790;37.572;2023-01-10T06:26:28;101909.64;;;-12.30;64.34
20228;BME280;12195;55.790;37.572;2023-01-10T06:29:00;101916.45;;;-12.29;64.39
20228;BME280;12195;55.790;37.572;2023-01-10T06:31:33;101904.02;;;-12.26;64.43
20228;BME280;12195;55.790;37.572;2023-01-10T06:34:05;101910.69;;;-12.15;64.41
20228;BME280;12195;55.790;37.572;2023-01-10T06:36:38;101920.70;;;-12.05;64.53
20228;BME280;12195;55.790;37.572;2023-01-10T06:39:12;101915.20;;;-12.11;64.48
20228;BME280;12195;55.790;37.572;2023-01-10T06:41:44;101927.41;;;-12.06;64.53
20228;BME280;12195;55.790;37.572;2023-01-10T06:44:16;101920.70;;;-12.05;64.69
20228;BME280;12195;55.790;37.572;2023-01-10T06:46:49;101942.92;;;-12.01;64.80
20228;BME280;12195;55.790;37.572;2023-01-10T06:49:22;101942.11;;;-11.89;64.96
20228;BME280;12195;55.790;37.572;2023-01-10T06:51:56;101945.53;;;-11.88;65.02
20228;BME280;12195;55.790;37.572;2023-01-10T06:54:29;101943.00;;;-11.88;65.11
20228;BME280;12195;55.790;37.572;2023-01-10T06:57:03;101935.80;;;-11.71;65.52
20228;BME280;12195;55.790;37.572;2023-01-10T06:59:35;101937.89;;;-11.77;65.33
20228;BME280;12195;55.790;37.572;2023-01-10T07:02:12;101927.77;;;-11.77;65.30
20228;BME280;12195;55.790;37.572;2023-01-10T07:04:46;101934.61;;;-11.76;65.39
20228;BME280;12195;55.790;37.572;2023-01-10T07:07:19;101917.97;;;-11.72;65.40
20228;BME280;12195;55.790;37.572;2023-01-10T07:09:52;101920.91;;;-11.66;65.56
20228;BME280;12195;55.790;37.572;2023-01-10T07:12:25;101929.30;;;-11.54;65.77
20228;BME280;12195;55.790;37.572;2023-01-10T07:14:58;101932.38;;;-11.47;65.89
20228;BME280;12195;55.790;37.572;2023-01-10T07:17:31;101932.56;;;-11.44;65.86
20228;BME280;12195;55.790;37.572;2023-01-10T07:20:04;101930.78;;;-11.33;65.93
20228;BME280;12195;55.790;37.572;2023-01-10T07:22:37;101920.83;;;-11.30;65.79
20228;BME280;12195;55.790;37.572;2023-01-10T07:25:10;101918.72;;;-11.24;65.83
20228;BME280;12195;55.790;37.572;2023-01-10T07:27:44;101920.36;;;-11.25;66.06
20228;BME280;12195;55.790;37.572;2023-01-10T07:30:17;101911.12;;;-11.24;66.12
20228;BME280;12195;55.790;37.572;2023-01-10T07:32:57;101912.19;;;-11.21;66.14
20228;BME280;12195;55.790;37.572;2023-01-10T07:35:31;101922.64;;;-11.16;66.22
20228;BME280;12195;55.790;37.572;2023-01-10T07:38:03;101925.36;;;-11.13;66.29
20228;BME280;12195;55.790;37.572;2023-01-10T07:40:36;101930.75;;;-11.09;66.38
20228;BME280;12195;55.790;37.572;2023-01-10T07:43:09;101932.34;;;-10.98;66.23
20228;BME280;12195;55.790;37.572;2023-01-10T07:45:42;101935.76;;;-10.84;66.08
20228;BME280;12195;55.790;37.572;2023-01-10T07:48:16;101937.41;;;-10.98;65.84
20228;BME280;12195;55.790;37.572;2023-01-10T07:50:53;101933.05;;;-10.87;65.66
20228;BME280;12195;55.790;37.572;2023-01-10T07:53:25;101944.45;;;-10.94;65.69
20228;BME280;12195;55.790;37.572;2023-01-10T07:56:01;101946.41;;;-10.90;65.64
20228;BME280;12195;55.790;37.572;2023-01-10T07:58:34;101947.37;;;-10.88;65.89
20228;BME280;12195;55.790;37.572;2023-01-10T08:01:06;101950.50;;;-10.79;66.02
20228;BME280;12195;55.790;37.572;2023-01-10T08:03:39;101942.53;;;-10.72;65.88
20228;BME280;12195;55.790;37.572;2023-01-10T08:06:11;101948.09;;;-10.64;65.81
20228;BME280;12195;55.790;37.572;2023-01-10T08:08:45;101932.11;;;-10.63;65.95
20228;BME280;12195;55.790;37.572;2023-01-10T08:11:17;101938.56;;;-10.55;66.09
20228;BME280;12195;55.790;37.572;2023-01-10T08:13:50;101940.30;;;-10.54;66.30
20228;BME280;12195;55.790;37.572;2023-01-10T08:16:22;101936.20;;;-10.52;66.47
20228;BME280;12195;55.790;37.572;2023-01-10T08:18:55;101930.73;;;-10.32;66.00
20228;BME280;12195;55.790;37.572;2023-01-10T08:21:27;101930.95;;;-10.42;66.19
20228;BME280;12195;55.790;37.572;2023-01-10T08:23:59;101938.34;;;-10.32;65.95
20228;BME280;12195;55.790;37.572;2023-01-10T08:26:32;101934.63;;;-10.24;65.90
20228;BME280;12195;55.790;37.572;2023-01-10T08:29:04;101932.20;;;-10.23;65.48
20228;BME280;12195;55.790;37.572;2023-01-10T08:31:39;101926.63;;;-10.17;65.84
20228;BME280;12195;55.790;37.572;2023-01-10T08:34:12;101933.86;;;-10.10;66.12
20228;BME280;12195;55.790;37.572;2023-01-10T08:36:44;101934.30;;;-10.03;66.23
20228;BME280;12195;55.790;37.572;2023-01-10T08:39:18;101932.52;;;-9.91;65.74
20228;BME280;12195;55.790;37.572;2023-01-10T08:41:52;101936.22;;;-9.86;65.76
20228;BME280;12195;55.790;37.572;2023-01-10T08:44:24;101927.41;;;-9.78;65.65
20228;BME280;12195;55.790;37.572;2023-01-10T08:46:57;101931.48;;;-9.67;65.01
20228;BME280;12195;55.790;37.572;2023-01-10T08:49:30;101936.66;;;-9.65;65.04
20228;BME280;12195;55.790;37.572;2023-01-10T08:52:02;101930.35;;;-9.57;64.86
20228;BME280;12195;55.790;37.572;2023-01-10T08:54:36;101927.05;;;-9.56;64.91
20228;BME280;12195;55.790;37.572;2023-01-10T08:57:08;101928.48;;;-9.47;64.97
20228;BME280;12195;55.790;37.572;2023-01-10T08:59:40;101928.23;;;-9.37;64.72
20228;BME280;12195;55.790;37.572;2023-01-10T09:02:13;101930.08;;;-9.34;64.69
20228;BME280;12195;55.790;37.572;2023-01-10T09:04:46;101924.78;;;-9.24;64.18
20228;BME280;12195;55.790;37.572;2023-01-10T09:07:18;101929.26;;;-9.20;63.75
20228;BME280;12195;55.790;37.572;2023-01-10T09:09:50;101921.97;;;-9.14;64.30
20228;BME280;12195;55.790;37.572;2023-01-10T09:12:22;101928.48;;;-9.05;64.20
20228;BME280;12195;55.790;37.572;2023-01-10T09:15:12;101929.28;;;-9.06;64.04
20228;BME280;12195;55.790;37.572;2023-01-10T09:17:44;101940.14;;;-8.94;63.78
20228;BME280;12195;55.790;37.572;2023-01-10T09:20:17;101926.80;;;-8.90;63.60
20228;BME280;12195;55.790;37.572;2023-01-10T09:22:49;101924.36;;;-8.88;63.83
20228;BME280;12195;55.790;37.572;2023-01-10T09:25:22;101920.59;;;-8.80;63.93
20228;BME280;12195;55.790;37.572;2023-01-10T09:27:59;101915.06;;;-8.73;63.85
20228;BME280;12195;55.790;37.572;2023-01-10T09:30:32;101921.56;;;-8.64;63.61
20228;BME280;12195;55.790;37.572;2023-01-10T09:33:05;101924.35;;;-8.59;63.54
20228;BME280;12195;55.790;37.572;2023-01-10T09:35:39;101922.97;;;-8.54;63.11
20228;BME280;12195;55.790;37.572;2023-01-10T09:38:15;101926.97;;;-8.43;62.64
20228;BME280;12195;55.790;37.572;2023-01-10T09:43:55;101912.84;;;-8.53;62.56
20228;BME280;12195;55.790;37.572;2023-01-10T09:46:56;101917.26;;;-8.50;62.42
20228;BME280;12195;55.790;37.572;2023-01-10T09:54:53;101918.49;;;-8.58;62.34
20228;BME280;12195;55.790;37.572;2023-01-10T09:57:26;101916.80;;;-8.58;62.25
20228;BME280;12195;55.790;37.572;2023-01-10T09:59:59;101909.78;;;-8.62;61.93
20228;BME280;12195;55.790;37.572;2023-01-10T10:02:35;101901.11;;;-8.65;61.95
20228;BME280;12195;55.790;37.572;2023-01-10T10:05:15;101902.44;;;-8.72;62.23
20228;BME280;12195;55.790;37.572;2023-01-10T10:07:50;101906.64;;;-8.72;62.29
20228;BME280;12195;55.790;37.572;2023-01-10T10:10:24;101905.07;;;-8.70;62.33
20228;BME280;12195;55.790;37.572;2023-01-10T10:13:19;101899.80;;;-8.73;62.50
20228;BME280;12195;55.790;37.572;2023-01-10T10:26:58;101899.88;;;-8.57;62.17
20228;BME280;12195;55.790;37.572;2023-01-10T10:32:29;101897.77;;;-8.64;62.66
20228;BME280;12195;55.790;37.572;2023-01-10T10:35:11;101901.38;;;-8.61;62.44
20228;BME280;12195;55.790;37.572;2023-01-10T10:37:44;101906.69;;;-8.42;62.22
20228;BME280;12195;55.790;37.572;2023-01-10T10:40:24;101898.23;;;-8.10;61.46
20228;BME280;12195;55.790;37.572;2023-01-10T10:42:59;101897.09;;;-7.85;60.56
20228;BME280;12195;55.790;37.572;2023-01-10T10:45:56;101893.84;;;-7.66;59.66
20228;BME280;12195;55.790;37.572;2023-01-10T10:48:16;101875.20;;;-7.49;59.50
20228;BME280;12195;55.790;37.572;2023-01-10T10:51:03;101892.58;;;-7.26;59.36
20228;BME280;12195;55.790;37.572;2023-01-10T10:53:36;101884.75;;;-7.29;58.82
20228;BME280;12195;55.790;37.572;2023-01-10T10:56:11;101894.48;;;-7.22;58.69
20228;BME280;12195;55.790;37.572;2023-01-10T10:58:47;101893.43;;;-7.26;58.38
20228;BME280;12195;55.790;37.572;2023-01-10T11:01:19;101889.05;;;-7.28;58.40
20228;BME280;12195;55.790;37.572;2023-01-10T11:04:09;101893.28;;;-7.13;58.26
20228;BME280;12195;55.790;37.572;2023-01-10T11:06:43;101891.72;;;-6.93;57.93
20228;BME280;12195;55.790;37.572;2023-01-10T11:09:20;101900.50;;;-7.04;58.49
20228;BME280;12195;55.790;37.572;2023-01-10T11:12:02;101897.02;;;-7.06;58.49
20228;BME280;12195;55.790;37.572;2023-01-10T11:14:47;101894.86;;;-7.15;58.56
20228;BME280;12195;55.790;37.572;2023-01-10T11:17:23;101903.63;;;-7.26;58.30
20228;BME280;12195;55.790;37.572;2023-01-10T11:20:01;101903.03;;;-7.38;58.39
20228;BME280;12195;55.790;37.572;2023-01-10T11:22:39;101900.78;;;-7.64;58.74
20228;BME280;12195;55.790;37.572;2023-01-10T11:25:19;101902.11;;;-7.86;59.20
20228;BME280;12195;55.790;37.572;2023-01-10T11:27:53;101897.47;;;-8.09;59.79
20228;BME280;12195;55.790;37.572;2023-01-10T11:30:35;101902.30;;;-8.14;60.24
20228;BME280;12195;55.790;37.572;2023-01-10T11:33:03;101906.84;;;-8.24;60.38
20228;BME280;12195;55.790;37.572;2023-01-10T11:35:38;101899.02;;;-8.27;60.72
20228;BME280;12195;55.790;37.572;2023-01-10T11:38:19;101904.83;;;-8.30;60.94
20228;BME280;12195;55.790;37.572;2023-01-10T11:41:04;101899.73;;;-8.30;61.21
20228;BME280;12195;55.790;37.572;2023-01-10T11:43:39;101895.53;;;-8.29;61.16
20228;BME280;12195;55.790;37.572;2023-01-10T11:46:19;101892.02;;;-8.15;61.21
20228;BME280;12195;55.790;37.572;2023-01-10T11:49:07;101887.41;;;-8.22;61.36
20228;BME280;12195;55.790;37.572;2023-01-10T11:51:51;101908.59;;;-8.23;61.51
20228;BME280;12195;55.790;37.572;2023-01-10T11:54:20;101900.64;;;-8.13;60.57
20228;BME280;12195;55.790;37.572;2023-01-10T11:57:08;101909.77;;;-8.17;60.64
20228;BME280;12195;55.790;37.572;2023-01-10T11:59:51;101908.02;;;-8.18;60.93
20228;BME280;12195;55.790;37.572;2023-01-10T12:02:29;101900.47;;;-8.16;61.25
20228;BME280;12195;55.790;37.572;2023-01-10T12:05:05;101906.77;;;-8.10;60.87
20228;BME280;12195;55.790;37.572;2023-01-10T12:07:59;101914.73;;;-8.04;60.75
20228;BME280;12195;55.790;37.572;2023-01-10T12:10:36;101919.05;;;-8.03;60.89
20228;BME280;12195;55.790;37.572;2023-01-10T12:13:15;101910.70;;;-8.00;61.07
20228;BME280;12195;55.790;37.572;2023-01-10T12:15:48;101921.06;;;-7.97;61.09
20228;BME280;12195;55.790;37.572;2023-01-10T12:18:20;101914.68;;;-7.89;61.27
20228;BME280;12195;55.790;37.572;2023-01-10T12:20:52;101925.05;;;-7.86;61.39
20228;BME280;12195;55.790;37.572;2023-01-10T12:23:25;101927.28;;;-7.92;61.04
20228;BME280;12195;55.790;37.572;2023-01-10T12:25:58;101933.75;;;-7.83;61.22
20228;BME280;12195;55.790;37.572;2023-01-10T12:28:34;101934.44;;;-8.01;60.46
20228;BME280;12195;55.790;37.572;2023-01-10T12:31:14;101942.75;;;-8.04;59.72
20228;BME280;12195;55.790;37.572;2023-01-10T12:34:05;101944.33;;;-8.22;60.25
20228;BME280;12195;55.790;37.572;2023-01-10T12:39:20;101936.61;;;-8.23;60.87
20228;BME280;12195;55.790;37.572;2023-01-10T12:52:30;101945.27;;;-8.65;60.63
20228;BME280;12195;55.790;37.572;2023-01-10T12:55:02;101946.83;;;-8.67;60.87
20228;BME280;12195;55.790;37.572;2023-01-10T12:57:36;101946.73;;;-8.68;60.93
20228;BME280;12195;55.790;37.572;2023-01-10T13:00:18;101948.86;;;-8.61;61.18
20228;BME280;12195;55.790;37.572;2023-01-10T13:02:50;101943.49;;;-8.66;60.85
20228;BME280;12195;55.790;37.572;2023-01-10T13:05:26;101944.72;;;-8.74;61.03
20228;BME280;12195;55.790;37.572;2023-01-10T13:08:08;101941.41;;;-8.73;60.95
20228;BME280;12195;55.790;37.572;2023-01-10T13:10:41;101930.52;;;-8.70;61.04
20228;BME280;12195;55.790;37.572;2023-01-10T13:13:31;101934.45;;;-8.75;60.66
20228;BME280;12195;55.790;37.572;2023-01-10T13:16:34;101931.66;;;-8.80;60.82
20228;BME280;12195;55.790;37.572;2023-01-10T13:19:30;101926.29;;;-8.84;61.08
20228;BME280;12195;55.790;37.572;2023-01-10T13:21:41;101929.20;;;-8.78;61.11
20228;BME280;12195;55.790;37.572;2023-01-10T13:24:22;101931.22;;;-8.87;61.31
20228;BME280;12195;55.790;37.572;2023-01-10T13:27:01;101927.88;;;-8.86;61.39
20228;BME280;12195;55.790;37.572;2023-01-10T13:29:43;101931.04;;;-8.90;61.51
20228;BME280;12195;55.790;37.572;2023-01-10T13:32:22;101934.19;;;-8.94;61.79
20228;BME280;12195;55.790;37.572;2023-01-10T13:35:07;101936.74;;;-8.80;62.09
20228;BME280;12195;55.790;37.572;2023-01-10T13:37:42;101934.19;;;-8.94;61.95
20228;BME280;12195;55.790;37.572;2023-01-10T13:40:18;101929.62;;;-9.00;62.07
20228;BME280;12195;55.790;37.572;2023-01-10T13:42:44;101937.86;;;-9.04;62.00
20228;BME280;12195;55.790;37.572;2023-01-10T13:45:34;101931.12;;;-9.03;61.93
20228;BME280;12195;55.790;37.572;2023-01-10T13:48:24;101924.95;;;-9.07;62.18
20228;BME280;12195;55.790;37.572;2023-01-10T13:51:04;101932.48;;;-9.08;62.25
20228;BME280;12195;55.790;37.572;2023-01-10T13:56:30;101945.22;;;-8.94;62.26
20228;BME280;12195;55.790;37.572;2023-01-10T13:59:02;101944.88;;;-9.00;61.85
20228;BME280;12195;55.790;37.572;2023-01-10T14:01:55;101949.08;;;-9.00;62.04
20228;BME280;12195;55.790;37.572;2023-01-10T14:04:48;101948.92;;;-9.03;62.13
20228;BME280;12195;55.790;37.572;2023-01-10T14:07:27;101958.30;;;-9.02;61.83
20228;BME280;12195;55.790;37.572;2023-01-10T14:10:04;101948.31;;;-8.99;62.04
20228;BME280;12195;55.790;37.572;2023-01-10T14:15:30;101937.95;;;-9.02;61.92
20228;BME280;12195;55.790;37.572;2023-01-10T14:18:20;101943.45;;;-9.09;61.71
20228;BME280;12195;55.790;37.572;2023-01-10T14:20:40;101939.88;;;-9.13;61.90
20228;BME280;12195;55.790;37.572;2023-01-10T14:25:53;101958.09;;;-9.20;62.10